Time;durP1;ratioP1;P1;durP2;ratioP2;P2;SDS_P1;SDS_P2;PMS_P1;PMS_P2;Temp;Humidity;BMP_temperature;BMP_pressure;BME280_temperature;BME280_humidity;BME280_pressure;Samples;Min_cycle;Max_cycle;Signal;HPM_P1;HPM_P2
2021/01/21 00:01:21;;;;;;;2.53;1.33;;;;;;;;;;5093921;28;20437;-80
2021/01/21 00:03:47;;;;;;;4.95;2.30;;;;;;;;;;5102755;28;20422;-80
2021/01/21 00:06:13;;;;;;;2.08;1.50;;;;;;;;;;5099304;28;20210;-80
2021/01/21 00:08:39;;;;;;;1.95;1.60;;;;;;;;;;5099479;28;20253;-83
2021/01/21 00:11:05;;;;;;;2.60;1.77;;;;;;;;;;5096145;28;20188;-83
2021/01/21 00:13:31;;;;;;;1.70;1.60;;;;;;;;;;5106240;28;20949;-83
2021/01/21 00:15:57;;;;;;;2.57;1.70;;;;;;;;;;5104200;28;20401;-83
2021/01/21 00:18:23;;;;;;;1.50;1.30;;;;;;;;;;5089696;28;20469;-83
2021/01/21 00:20:49;;;;;;;2.10;1.90;;;;;;;;;;5102073;28;20191;-80
2021/01/21 00:23:15;;;;;;;2.33;1.63;;;;;;;;;;5104772;28;20464;-80
2021/01/21 00:25:41;;;;;;;5.00;1.83;;;;;;;;;;5086703;28;20498;-80
2021/01/21 00:28:06;;;;;;;3.07;1.60;;;;;;;;;;5100996;28;20189;-86
2021/01/21 00:30:32;;;;;;;2.23;1.70;;;;;;;;;;5090948;28;20783;-81
2021/01/21 00:32:58;;;;;;;3.00;2.00;;;;;;;;;;5098323;28;20541;-85
2021/01/21 00:35:24;;;;;;;1.90;1.57;;;;;;;;;;5099343;28;20437;-83
2021/01/21 00:37:50;;;;;;;1.75;1.63;;;;;;;;;;5096653;28;20454;-87
2021/01/21 00:40:16;;;;;;;2.93;2.00;;;;;;;;;;5105354;28;20182;-85
2021/01/21 00:42:42;;;;;;;2.28;2.08;;;;;;;;;;5091117;28;20457;-84
2021/01/21 00:45:08;;;;;;;4.30;2.47;;;;;;;;;;5099105;28;20184;-81
2021/01/21 00:47:34;;;;;;;2.95;2.00;;;;;;;;;;5099448;28;20895;-83
2021/01/21 00:50:00;;;;;;;2.10;1.47;;;;;;;;;;5098121;28;20213;-80
2021/01/21 00:52:26;;;;;;;2.28;1.45;;;;;;;;;;5105685;28;20474;-80
2021/01/21 00:54:52;;;;;;;4.00;2.43;;;;;;;;;;5093257;28;20176;-84
2021/01/21 00:57:18;;;;;;;3.45;1.90;;;;;;;;;;5097268;28;20429;-81
2021/01/21 00:59:44;;;;;;;1.80;1.70;;;;;;;;;;5098426;28;20185;-84
2021/01/21 01:02:10;;;;;;;2.60;2.23;;;;;;;;;;5099242;28;20270;-84
2021/01/21 01:04:36;;;;;;;5.53;2.15;;;;;;;;;;5104797;28;20467;-86
2021/01/21 01:07:02;;;;;;;2.72;1.83;;;;;;;;;;5101720;28;20187;-84
2021/01/21 01:09:28;;;;;;;2.25;1.50;;;;;;;;;;5096506;28;20188;-83
2021/01/21 01:11:55;;;;;;;2.15;1.90;;;;;;;;;;5088325;28;20261;-82
2021/01/21 01:14:21;;;;;;;3.42;1.60;;;;;;;;;;5093626;28;20194;-81
2021/01/21 01:16:47;;;;;;;2.03;1.90;;;;;;;;;;5104661;28;20187;-87
2021/01/21 01:19:13;;;;;;;1.57;1.30;;;;;;;;;;5100268;28;20438;-83
2021/01/21 01:21:40;;;;;;;5.37;1.73;;;;;;;;;;5087928;28;20975;-83
2021/01/21 01:24:06;;;;;;;2.08;1.52;;;;;;;;;;5098046;28;20510;-84
2021/01/21 01:26:32;;;;;;;2.55;1.60;;;;;;;;;;5100027;28;20965;-81
2021/01/21 01:28:58;;;;;;;1.73;1.43;;;;;;;;;;5103974;28;20203;-82
2021/01/21 01:31:26;;;;;;;1.90;1.33;;;;;;;;;;5092546;28;20473;-86
2021/01/21 01:33:52;;;;;;;1.48;1.20;;;;;;;;;;5107859;28;20508;-80
2021/01/21 01:36:18;;;;;;;1.65;1.27;;;;;;;;;;5108639;28;20172;-84
2021/01/21 01:38:44;;;;;;;1.73;1.60;;;;;;;;;;5106282;28;20641;-82
2021/01/21 01:41:10;;;;;;;3.57;1.27;;;;;;;;;;5106018;28;20494;-87
2021/01/21 01:43:36;;;;;;;1.73;1.20;;;;;;;;;;5096507;28;20449;-83
2021/01/21 01:46:02;;;;;;;2.88;1.30;;;;;;;;;;5109464;28;20258;-83
2021/01/21 01:48:28;;;;;;;3.22;1.45;;;;;;;;;;5095309;28;20720;-83
2021/01/21 01:50:54;;;;;;;1.10;1.00;;;;;;;;;;5095085;28;20673;-79
2021/01/21 01:53:20;;;;;;;1.47;1.30;;;;;;;;;;5088499;28;20203;-80
2021/01/21 01:55:46;;;;;;;1.77;1.30;;;;;;;;;;5097806;28;20698;-83
2021/01/21 01:58:14;;;;;;;1.83;1.25;;;;;;;;;;5097864;28;20447;-83
2021/01/21 02:00:40;;;;;;;2.00;1.40;;;;;;;;;;5095383;28;20183;-80
2021/01/21 02:03:06;;;;;;;1.30;1.20;;;;;;;;;;5099658;28;20258;-79
2021/01/21 02:05:34;;;;;;;1.20;1.00;;;;;;;;;;5104912;28;20188;-80
2021/01/21 02:08:00;;;;;;;2.00;1.00;;;;;;;;;;5097502;28;20210;-83
2021/01/21 02:10:26;;;;;;;2.25;1.02;;;;;;;;;;5099741;28;20251;-80
2021/01/21 02:12:52;;;;;;;1.65;1.00;;;;;;;;;;5090176;28;20216;-82
2021/01/21 02:15:17;;;;;;;2.20;1.00;;;;;;;;;;5098532;28;20183;-79
2021/01/21 02:18:00;;;;;;;1.17;1.00;;;;;;;;;;5101436;28;20426;-80
2021/01/21 02:20:45;;;;;;;2.97;1.20;;;;;;;;;;5107945;28;20455;-79
2021/01/21 02:23:45;;;;;;;1.80;1.35;;;;;;;;;;5108474;28;20187;-82
2021/01/21 02:26:14;;;;;;;5.90;1.20;;;;;;;;;;5094594;28;20668;-81
2021/01/21 02:29:03;;;;;;;2.00;1.33;;;;;;;;;;5104766;28;20668;-83
2021/01/21 02:31:38;;;;;;;1.30;0.93;;;;;;;;;;5095646;28;20633;-82
2021/01/21 02:34:05;;;;;;;2.90;1.10;;;;;;;;;;5103458;28;20179;-84
2021/01/21 02:36:36;;;;;;;3.05;1.10;;;;;;;;;;5093224;28;20607;-87
2021/01/21 02:39:02;;;;;;;7.25;1.10;;;;;;;;;;5095432;28;20189;-83
2021/01/21 02:41:30;;;;;;;1.38;0.60;;;;;;;;;;5098223;28;20551;-82
2021/01/21 02:43:56;;;;;;;1.60;0.60;;;;;;;;;;5094223;28;20195;-87
2021/01/21 02:46:23;;;;;;;1.88;1.00;;;;;;;;;;5107505;28;20184;-86
2021/01/21 02:48:52;;;;;;;1.10;0.60;;;;;;;;;;5105236;28;20184;-87
2021/01/21 02:51:28;;;;;;;2.60;0.70;;;;;;;;;;5100431;28;20190;-85
2021/01/21 02:54:01;;;;;;;0.98;0.70;;;;;;;;;;5104984;28;20215;-84
2021/01/21 02:56:28;;;;;;;4.60;1.08;;;;;;;;;;5101971;28;20179;-84
2021/01/21 02:58:55;;;;;;;1.95;0.73;;;;;;;;;;5088778;28;20188;-84
2021/01/21 03:01:21;;;;;;;1.83;0.75;;;;;;;;;;5092042;28;20195;-82
2021/01/21 03:03:47;;;;;;;2.27;0.67;;;;;;;;;;5092478;28;20238;-81
2021/01/21 03:06:13;;;;;;;1.67;0.60;;;;;;;;;;5103391;28;20429;-84
2021/01/21 03:08:39;;;;;;;1.83;0.60;;;;;;;;;;5103298;28;20184;-85
2021/01/21 03:11:12;;;;;;;2.38;1.05;;;;;;;;;;5087840;28;20192;-82
2021/01/21 03:13:39;;;;;;;1.13;1.02;;;;;;;;;;5096246;28;20215;-83
2021/01/21 03:16:06;;;;;;;1.33;0.85;;;;;;;;;;5095195;28;20250;-81
2021/01/21 03:18:32;;;;;;;1.02;0.80;;;;;;;;;;5092057;28;20173;-83
2021/01/21 03:20:58;;;;;;;2.92;0.80;;;;;;;;;;5095739;28;20522;-85
2021/01/21 03:23:24;;;;;;;2.50;0.90;;;;;;;;;;5101354;28;20207;-84
2021/01/21 03:25:50;;;;;;;3.13;0.82;;;;;;;;;;5107057;28;20452;-80
2021/01/21 03:28:16;;;;;;;2.83;0.70;;;;;;;;;;5094576;28;20198;-80
2021/01/21 03:30:42;;;;;;;1.38;0.88;;;;;;;;;;5091514;28;20506;-83
2021/01/21 03:33:08;;;;;;;1.98;0.82;;;;;;;;;;5094774;28;20219;-83
2021/01/21 03:35:34;;;;;;;2.78;1.00;;;;;;;;;;5096670;28;20207;-85
2021/01/21 03:37:59;;;;;;;2.70;1.00;;;;;;;;;;5099853;28;20200;-85
2021/01/21 03:40:25;;;;;;;4.03;1.10;;;;;;;;;;5088887;28;20429;-83
2021/01/21 03:42:51;;;;;;;2.00;0.80;;;;;;;;;;5099307;28;20437;-85
2021/01/21 03:45:17;;;;;;;3.38;0.90;;;;;;;;;;5099422;28;20432;-83
2021/01/21 03:47:43;;;;;;;3.22;1.27;;;;;;;;;;5104917;28;20187;-85
2021/01/21 03:50:10;;;;;;;3.97;0.80;;;;;;;;;;5103432;28;20247;-83
2021/01/21 03:52:36;;;;;;;3.33;1.13;;;;;;;;;;5093208;28;20211;-83
2021/01/21 03:55:02;;;;;;;2.20;0.90;;;;;;;;;;5100896;28;20214;-84
2021/01/21 03:57:28;;;;;;;1.50;1.35;;;;;;;;;;5103966;28;20637;-84
2021/01/21 03:59:54;;;;;;;1.90;1.00;;;;;;;;;;5103538;28;20187;-85
2021/01/21 04:02:19;;;;;;;3.90;0.70;;;;;;;;;;5102932;28;20545;-83
2021/01/21 04:04:46;;;;;;;1.57;0.90;;;;;;;;;;5089658;28;20437;-83
2021/01/21 04:07:12;;;;;;;7.05;1.15;;;;;;;;;;5091768;28;20433;-84
2021/01/21 04:09:38;;;;;;;6.13;1.17;;;;;;;;;;5091246;28;20180;-82
2021/01/21 04:12:04;;;;;;;6.23;1.47;;;;;;;;;;5092934;28;20615;-83
2021/01/21 04:14:30;;;;;;;196.77;111.78;;;;;;;;;;5100311;28;20440;-85
2021/01/21 04:16:56;;;;;;;137.57;72.22;;;;;;;;;;5098062;28;20199;-83
2021/01/21 04:19:22;;;;;;;13.20;7.20;;;;;;;;;;5094684;28;20180;-84
2021/01/21 04:21:48;;;;;;;99.47;50.83;;;;;;;;;;5091789;28;20448;-84
2021/01/21 04:24:14;;;;;;;70.72;42.15;;;;;;;;;;5099484;28;20442;-84
2021/01/21 04:26:40;;;;;;;8.17;7.37;;;;;;;;;;5111291;28;20191;-82
2021/01/21 04:29:06;;;;;;;10.15;8.90;;;;;;;;;;5098819;28;20430;-83
2021/01/21 04:31:32;;;;;;;78.60;55.13;;;;;;;;;;5094672;28;20239;-85
2021/01/21 04:33:58;;;;;;;117.03;92.30;;;;;;;;;;5113647;28;20456;-83
2021/01/21 04:36:23;;;;;;;9.30;6.30;;;;;;;;;;5109955;28;20227;-83
2021/01/21 04:38:49;;;;;;;12.20;10.97;;;;;;;;;;5096032;28;20496;-82
2021/01/21 04:41:16;;;;;;;15.40;10.43;;;;;;;;;;5094687;28;20429;-85
2021/01/21 04:43:42;;;;;;;2.75;1.85;;;;;;;;;;5093437;28;20942;-82
2021/01/21 04:46:08;;;;;;;4.07;3.50;;;;;;;;;;5092281;28;20183;-82
2021/01/21 04:48:35;;;;;;;6.75;5.00;;;;;;;;;;5097334;28;20433;-82
2021/01/21 04:51:02;;;;;;;2.95;2.70;;;;;;;;;;5091420;28;20211;-81
2021/01/21 04:53:28;;;;;;;8.60;7.40;;;;;;;;;;5096946;28;20234;-82
2021/01/21 04:56:02;;;;;;;3.33;1.77;;;;;;;;;;5086655;28;20192;-81
2021/01/21 04:58:33;;;;;;;5.03;1.35;;;;;;;;;;5103664;28;20190;-81
2021/01/21 05:00:59;;;;;;;5.85;2.75;;;;;;;;;;5092233;28;20265;-80
2021/01/21 05:03:26;;;;;;;2.50;1.88;;;;;;;;;;5102372;28;20203;-85
2021/01/21 05:05:53;;;;;;;4.00;3.20;;;;;;;;;;5102802;28;20218;-81
2021/01/21 05:08:19;;;;;;;10.23;3.03;;;;;;;;;;5095524;28;20271;-84
2021/01/21 05:10:45;;;;;;;7.75;3.00;;;;;;;;;;5094298;28;20279;-81
2021/01/21 05:13:11;;;;;;;5.30;1.25;;;;;;;;;;5094454;28;20211;-81
2021/01/21 05:15:37;;;;;;;9.30;2.40;;;;;;;;;;5094570;28;20187;-81
2021/01/21 05:18:03;;;;;;;84.30;58.80;;;;;;;;;;5109368;28;20168;-81
2021/01/21 05:20:34;;;;;;;40.63;23.50;;;;;;;;;;5103701;28;20171;-81
2021/01/21 05:23:00;;;;;;;30.13;13.88;;;;;;;;;;5098547;28;20184;-80
2021/01/21 05:25:27;;;;;;;10.60;5.30;;;;;;;;;;5098446;28;20210;-80
2021/01/21 05:27:53;;;;;;;7.70;3.65;;;;;;;;;;5107401;28;20287;-80
2021/01/21 05:30:20;;;;;;;14.07;8.15;;;;;;;;;;5107659;28;20182;-81
2021/01/21 05:32:46;;;;;;;16.08;14.55;;;;;;;;;;5102831;28;20250;-82
2021/01/21 05:35:14;;;;;;;5.38;4.43;;;;;;;;;;5096042;28;20180;-84
2021/01/21 05:37:40;;;;;;;9.38;5.90;;;;;;;;;;5089676;28;20206;-80
2021/01/21 05:40:08;;;;;;;1.83;1.65;;;;;;;;;;5091772;28;20207;-82
2021/01/21 05:42:37;;;;;;;4.55;3.72;;;;;;;;;;5088390;28;20172;-81
2021/01/21 05:45:07;;;;;;;4.35;1.85;;;;;;;;;;5104509;28;20183;-80
2021/01/21 05:47:33;;;;;;;8.48;3.58;;;;;;;;;;5107294;28;20263;-81
2021/01/21 05:50:00;;;;;;;3.55;1.80;;;;;;;;;;5096130;28;20618;-80
2021/01/21 05:52:27;;;;;;;13.32;12.30;;;;;;;;;;5106198;28;20204;-82
2021/01/21 05:54:53;;;;;;;5.20;1.52;;;;;;;;;;5095500;28;20176;-80
2021/01/21 05:57:19;;;;;;;2.75;1.27;;;;;;;;;;5101658;28;20239;-80
2021/01/21 05:59:47;;;;;;;3.83;1.20;;;;;;;;;;5100497;28;20193;-82
2021/01/21 06:02:13;;;;;;;5.32;1.23;;;;;;;;;;5099232;28;20468;-81
2021/01/21 06:04:41;;;;;;;3.10;1.30;;;;;;;;;;5107518;28;20202;-80
2021/01/21 06:07:07;;;;;;;4.95;1.17;;;;;;;;;;5104950;28;20179;-81
2021/01/21 06:09:33;;;;;;;4.50;1.42;;;;;;;;;;5099824;28;20548;-80
2021/01/21 06:12:00;;;;;;;4.90;1.00;;;;;;;;;;5099530;28;20184;-80
2021/01/21 06:14:26;;;;;;;2.42;1.08;;;;;;;;;;5103091;28;20333;-82
2021/01/21 06:16:53;;;;;;;2.30;1.55;;;;;;;;;;5102751;28;20187;-80
2021/01/21 06:19:19;;;;;;;4.63;1.30;;;;;;;;;;5095464;28;20275;-80
2021/01/21 06:21:50;;;;;;;4.03;1.00;;;;;;;;;;5096213;28;20176;-82
2021/01/21 06:24:16;;;;;;;5.55;0.95;;;;;;;;;;5090915;28;20199;-81
2021/01/21 06:26:45;;;;;;;6.32;2.30;;;;;;;;;;5102193;28;20184;-80
2021/01/21 06:29:14;;;;;;;8.23;4.25;;;;;;;;;;5101040;28;20180;-85
2021/01/21 06:31:41;;;;;;;5.90;4.10;;;;;;;;;;5088542;28;20224;-80
2021/01/21 06:34:10;;;;;;;3.58;1.70;;;;;;;;;;5108041;28;20179;-80
2021/01/21 06:36:39;;;;;;;2.97;1.17;;;;;;;;;;5094775;28;20174;-81
2021/01/21 06:39:05;;;;;;;5.22;1.40;;;;;;;;;;5100725;28;20176;-80
2021/01/21 06:41:35;;;;;;;2.95;0.90;;;;;;;;;;5102464;28;20179;-83
2021/01/21 06:44:01;;;;;;;3.05;0.88;;;;;;;;;;5106656;28;20223;-80
2021/01/21 06:46:27;;;;;;;4.40;2.47;;;;;;;;;;5105656;28;20180;-80
2021/01/21 06:48:53;;;;;;;3.83;1.45;;;;;;;;;;5093860;28;20583;-80
2021/01/21 06:51:20;;;;;;;3.47;1.00;;;;;;;;;;5097475;28;20177;-81
2021/01/21 06:53:51;;;;;;;5.15;2.50;;;;;;;;;;5106275;28;20211;-81
2021/01/21 06:56:17;;;;;;;6.75;2.72;;;;;;;;;;5099071;28;20180;-80
2021/01/21 06:58:47;;;;;;;13.98;12.50;;;;;;;;;;5097133;28;20191;-81
2021/01/21 07:01:32;;;;;;;4.20;2.55;;;;;;;;;;5101210;28;20184;-81
2021/01/21 07:04:10;;;;;;;6.13;5.53;;;;;;;;;;5092745;28;20262;-80
2021/01/21 07:06:58;;;;;;;4.40;3.78;;;;;;;;;;5089455;28;20180;-85
2021/01/21 07:09:28;;;;;;;11.80;10.18;;;;;;;;;;5095791;28;20179;-80
2021/01/21 07:11:56;;;;;;;16.60;15.25;;;;;;;;;;5097875;28;20187;-80
2021/01/21 07:14:23;;;;;;;6.55;6.05;;;;;;;;;;5098666;28;20179;-81
2021/01/21 07:16:50;;;;;;;5.30;1.15;;;;;;;;;;5098125;28;20214;-81
2021/01/21 07:19:16;;;;;;;2.58;1.40;;;;;;;;;;5094724;28;20179;-84
2021/01/21 07:21:52;;;;;;;8.80;1.90;;;;;;;;;;5103997;28;20175;-80
2021/01/21 07:24:21;;;;;;;6.18;1.10;;;;;;;;;;5094544;28;20548;-81
2021/01/21 07:26:52;;;;;;;5.65;1.35;;;;;;;;;;5092378;28;20188;-83
2021/01/21 07:29:19;;;;;;;1.33;0.98;;;;;;;;;;5097848;28;20541;-82
2021/01/21 07:31:56;;;;;;;7.28;1.27;;;;;;;;;;5088438;28;20230;-83
2021/01/21 07:34:28;;;;;;;3.40;1.48;;;;;;;;;;5100148;28;20526;-81
2021/01/21 07:37:12;;;;;;;7.60;1.48;;;;;;;;;;5093887;28;20186;-84
2021/01/21 07:39:57;;;;;;;6.20;1.30;;;;;;;;;;5099669;28;20202;-81
2021/01/21 07:42:36;;;;;;;7.40;2.90;;;;;;;;;;5094241;28;20188;-86
2021/01/21 07:45:04;;;;;;;5.55;1.77;;;;;;;;;;5092343;28;20663;-84
2021/01/21 07:47:30;;;;;;;11.27;2.17;;;;;;;;;;5100291;28;20183;-89
2021/01/21 07:50:14;;;;;;;3.20;1.10;;;;;;;;;;5089941;28;20192;-91
2021/01/21 07:52:44;;;;;;;2.35;2.13;;;;;;;;;;5101662;28;20208;-84
2021/01/21 07:55:11;;;;;;;10.50;7.35;;;;;;;;;;5094155;28;20180;-87
2021/01/21 07:57:37;;;;;;;4.68;1.80;;;;;;;;;;5089821;28;20191;-90
2021/01/21 08:00:10;;;;;;;7.40;2.58;;;;;;;;;;5099751;28;20214;-85
2021/01/21 08:02:46;;;;;;;3.65;1.52;;;;;;;;;;5093818;28;20625;-87
2021/01/21 08:05:19;;;;;;;4.18;2.10;;;;;;;;;;5098843;28;20188;-90
2021/01/21 08:07:52;;;;;;;4.18;3.70;;;;;;;;;;5099769;28;20183;-90
2021/01/21 08:10:25;;;;;;;5.57;1.85;;;;;;;;;;5095323;28;20191;-90
2021/01/21 08:12:51;;;;;;;2.95;1.75;;;;;;;;;;5102344;28;20652;-85
2021/01/21 08:15:21;;;;;;;4.55;3.13;;;;;;;;;;5099031;28;20201;-86
2021/01/21 08:17:50;;;;;;;4.32;2.72;;;;;;;;;;5089172;28;20720;-86
2021/01/21 08:20:18;;;;;;;7.20;3.85;;;;;;;;;;5100202;28;20430;-86
2021/01/21 08:23:03;;;;;;;9.68;4.82;;;;;;;;;;5102779;28;20188;-88
2021/01/21 08:25:33;;;;;;;15.48;4.18;;;;;;;;;;5099640;28;20191;-85
2021/01/21 08:27:59;;;;;;;4.28;1.90;;;;;;;;;;5089150;28;20683;-86
2021/01/21 08:30:26;;;;;;;3.90;2.40;;;;;;;;;;5101312;28;20187;-88
2021/01/21 08:32:52;;;;;;;5.70;1.55;;;;;;;;;;5097051;28;20215;-86
2021/01/21 08:35:20;;;;;;;4.93;1.70;;;;;;;;;;5104413;28;20172;-86
2021/01/21 08:37:46;;;;;;;3.92;2.80;;;;;;;;;;5099575;28;20184;-87
2021/01/21 08:40:12;;;;;;;3.10;1.95;;;;;;;;;;5101005;28;20191;-85
2021/01/21 08:42:39;;;;;;;3.90;2.08;;;;;;;;;;5102402;28;20186;-86
2021/01/21 08:45:05;;;;;;;6.22;2.65;;;;;;;;;;5102214;28;20171;-88
2021/01/21 08:47:41;;;;;;;8.55;4.75;;;;;;;;;;5096620;28;20230;-86
2021/01/21 08:50:07;;;;;;;3.90;2.13;;;;;;;;;;5098003;28;20207;-85
2021/01/21 08:52:33;;;;;;;5.45;1.92;;;;;;;;;;5088546;28;20210;-87
2021/01/21 08:54:59;;;;;;;8.98;2.65;;;;;;;;;;5098573;28;20178;-90
2021/01/21 08:57:25;;;;;;;8.65;2.30;;;;;;;;;;5103057;28;20239;-90
2021/01/21 08:59:52;;;;;;;4.97;2.40;;;;;;;;;;5095300;28;20260;-88
2021/01/21 09:02:37;;;;;;;3.78;2.50;;;;;;;;;;5101022;28;20250;-89
2021/01/21 09:05:03;;;;;;;7.50;4.43;;;;;;;;;;5091021;28;20194;-87
2021/01/21 09:07:29;;;;;;;5.20;3.13;;;;;;;;;;5101021;28;20275;-87
2021/01/21 09:09:55;;;;;;;3.45;2.08;;;;;;;;;;5100287;28;20184;-87
2021/01/21 09:12:23;;;;;;;10.03;3.40;;;;;;;;;;5098082;28;20222;-87
2021/01/21 09:15:04;;;;;;;6.57;1.55;;;;;;;;;;5095776;28;20453;-87
2021/01/21 09:17:33;;;;;;;4.18;2.60;;;;;;;;;;5100492;28;20207;-89
2021/01/21 09:19:59;;;;;;;4.40;1.77;;;;;;;;;;5090009;28;20321;-88
2021/01/21 09:22:28;;;;;;;5.47;2.05;;;;;;;;;;5095378;28;20212;-85
2021/01/21 09:24:55;;;;;;;4.35;1.48;;;;;;;;;;5092041;28;20207;-84
2021/01/21 09:27:24;;;;;;;5.75;1.52;;;;;;;;;;5095464;28;20188;-89
2021/01/21 09:30:04;;;;;;;6.30;1.73;;;;;;;;;;5097908;28;20190;-87
2021/01/21 09:32:33;;;;;;;8.13;1.75;;;;;;;;;;5099959;28;20226;-84
2021/01/21 09:34:59;;;;;;;4.80;1.75;;;;;;;;;;5097696;28;20230;-92
2021/01/21 09:37:26;;;;;;;6.88;2.08;;;;;;;;;;5092048;28;20179;-89
2021/01/21 09:39:52;;;;;;;2.90;1.80;;;;;;;;;;5094586;28;20204;-85
2021/01/21 09:42:20;;;;;;;8.88;1.88;;;;;;;;;;5097817;28;20184;-88
2021/01/21 09:44:47;;;;;;;6.35;2.20;;;;;;;;;;5092841;28;20177;-86
2021/01/21 09:47:13;;;;;;;8.15;2.10;;;;;;;;;;5099949;28;20188;-83
2021/01/21 09:49:43;;;;;;;7.93;2.03;;;;;;;;;;5096097;28;20202;-91
2021/01/21 09:52:09;;;;;;;7.45;1.88;;;;;;;;;;5100693;28;20199;-86
2021/01/21 09:54:35;;;;;;;7.07;1.70;;;;;;;;;;5094044;28;20184;-84
2021/01/21 09:57:01;;;;;;;5.93;2.20;;;;;;;;;;5103621;28;20218;-86
2021/01/21 09:59:27;;;;;;;6.78;2.45;;;;;;;;;;5098632;28;20176;-85
2021/01/21 10:01:53;;;;;;;7.67;2.63;;;;;;;;;;5096676;28;20206;-91
2021/01/21 10:04:19;;;;;;;5.40;1.65;;;;;;;;;;5108326;28;20425;-90
2021/01/21 10:06:45;;;;;;;9.18;2.00;;;;;;;;;;5095888;28;20208;-88
2021/01/21 10:09:11;;;;;;;4.68;1.85;;;;;;;;;;5103673;28;20617;-86
2021/01/21 10:11:39;;;;;;;8.20;1.90;;;;;;;;;;5104753;28;20209;-87
2021/01/21 10:14:05;;;;;;;3.67;1.55;;;;;;;;;;5101196;28;20465;-87
2021/01/21 10:16:31;;;;;;;3.38;1.25;;;;;;;;;;5094944;28;20262;-86
2021/01/21 10:18:57;;;;;;;5.17;1.70;;;;;;;;;;5095723;28;20200;-88
2021/01/21 10:21:24;;;;;;;5.00;1.30;;;;;;;;;;5100327;28;20402;-87
2021/01/21 10:23:50;;;;;;;11.38;2.30;;;;;;;;;;5106698;28;20182;-86
2021/01/21 10:26:16;;;;;;;7.43;1.80;;;;;;;;;;5101236;28;20431;-86
2021/01/21 10:28:42;;;;;;;6.45;2.00;;;;;;;;;;5105436;28;20243;-83
2021/01/21 10:31:08;;;;;;;12.10;2.60;;;;;;;;;;5094834;28;20227;-86
2021/01/21 10:33:36;;;;;;;9.30;2.05;;;;;;;;;;5088058;28;20200;-87
2021/01/21 10:36:02;;;;;;;8.50;1.55;;;;;;;;;;5101913;28;20629;-85
2021/01/21 10:38:28;;;;;;;5.72;1.88;;;;;;;;;;5103467;28;20176;-85
2021/01/21 10:40:54;;;;;;;5.35;2.22;;;;;;;;;;5089960;28;20214;-82
2021/01/21 10:43:20;;;;;;;8.75;1.98;;;;;;;;;;5101553;28;20208;-86
2021/01/21 10:45:46;;;;;;;5.30;2.07;;;;;;;;;;5094850;28;20216;-90
2021/01/21 10:48:12;;;;;;;4.37;2.20;;;;;;;;;;5093257;28;20514;-80
2021/01/21 10:50:38;;;;;;;6.35;2.15;;;;;;;;;;5103678;28;20978;-86
2021/01/21 10:53:04;;;;;;;8.40;2.92;;;;;;;;;;5107734;28;20204;-84
2021/01/21 10:55:30;;;;;;;6.43;1.95;;;;;;;;;;5104943;28;20175;-84
2021/01/21 10:57:56;;;;;;;5.40;1.60;;;;;;;;;;5093768;28;20184;-85
2021/01/21 11:00:22;;;;;;;5.30;1.60;;;;;;;;;;5103773;28;20418;-83
2021/01/21 11:02:49;;;;;;;4.43;1.70;;;;;;;;;;5104028;28;20205;-86
2021/01/21 11:05:15;;;;;;;6.88;1.98;;;;;;;;;;5107642;28;20190;-86
2021/01/21 11:07:41;;;;;;;7.13;1.80;;;;;;;;;;5089302;28;20211;-87
2021/01/21 11:10:07;;;;;;;7.07;2.67;;;;;;;;;;5089926;28;20183;-83
2021/01/21 11:12:35;;;;;;;6.57;1.50;;;;;;;;;;5086874;28;20287;-85
2021/01/21 11:15:01;;;;;;;5.10;1.70;;;;;;;;;;5095130;28;20199;-86
2021/01/21 11:17:27;;;;;;;5.38;1.70;;;;;;;;;;5098688;28;20636;-86
2021/01/21 11:19:53;;;;;;;11.57;2.40;;;;;;;;;;5088891;28;20198;-87
2021/01/21 11:22:19;;;;;;;6.20;1.77;;;;;;;;;;5103174;28;20195;-87
2021/01/21 11:24:45;;;;;;;9.85;2.25;;;;;;;;;;5103673;28;20379;-86
2021/01/21 11:27:11;;;;;;;10.23;2.83;;;;;;;;;;5093656;28;20244;-83
2021/01/21 11:29:37;;;;;;;5.70;2.50;;;;;;;;;;5101872;28;20439;-85
2021/01/21 11:32:03;;;;;;;18.38;4.20;;;;;;;;;;5105649;28;20484;-87
2021/01/21 11:34:29;;;;;;;7.88;2.13;;;;;;;;;;5104612;28;20183;-87
2021/01/21 11:36:55;;;;;;;4.20;2.30;;;;;;;;;;5104168;28;20575;-85
2021/01/21 11:39:21;;;;;;;7.88;2.35;;;;;;;;;;5089111;28;20457;-86
2021/01/21 11:41:47;;;;;;;10.33;2.23;;;;;;;;;;5104723;28;20192;-87
2021/01/21 11:44:13;;;;;;;8.07;2.05;;;;;;;;;;5103693;28;20520;-83
2021/01/21 11:46:38;;;;;;;5.47;2.05;;;;;;;;;;5102744;28;20215;-88
2021/01/21 11:49:08;;;;;;;7.10;2.50;;;;;;;;;;5099693;28;20184;-85
2021/01/21 11:51:33;;;;;;;9.00;2.63;;;;;;;;;;5095152;28;20521;-84
2021/01/21 11:53:59;;;;;;;10.45;2.10;;;;;;;;;;5097632;28;20246;-84
2021/01/21 11:56:26;;;;;;;7.95;2.33;;;;;;;;;;5101924;28;20218;-83
2021/01/21 11:58:51;;;;;;;10.05;2.00;;;;;;;;;;5095953;28;20191;-85
2021/01/21 12:01:17;;;;;;;10.38;2.00;;;;;;;;;;5091946;28;20659;-83
2021/01/21 12:03:43;;;;;;;5.53;2.13;;;;;;;;;;5099496;28;20205;-84
2021/01/21 12:06:09;;;;;;;10.93;2.63;;;;;;;;;;5099711;28;20509;-85
2021/01/21 12:08:35;;;;;;;4.13;2.10;;;;;;;;;;5103636;28;20926;-82
2021/01/21 12:11:01;;;;;;;9.23;2.33;;;;;;;;;;5102991;28;20433;-84
2021/01/21 12:13:27;;;;;;;8.27;2.30;;;;;;;;;;5102741;28;20253;-87
2021/01/21 12:15:53;;;;;;;3.93;1.50;;;;;;;;;;5087560;28;20195;-86
2021/01/21 12:18:19;;;;;;;9.48;3.17;;;;;;;;;;5105773;28;20428;-88
2021/01/21 12:20:45;;;;;;;9.80;2.23;;;;;;;;;;5100125;28;20189;-88
2021/01/21 12:23:13;;;;;;;6.40;1.70;;;;;;;;;;5093128;28;20467;-87
2021/01/21 12:25:38;;;;;;;10.20;2.08;;;;;;;;;;5103355;28;20897;-87
2021/01/21 12:28:05;;;;;;;5.50;1.87;;;;;;;;;;5088472;28;20217;-90
2021/01/21 12:30:30;;;;;;;6.25;1.90;;;;;;;;;;5089081;28;20450;-86
2021/01/21 12:32:56;;;;;;;6.32;2.00;;;;;;;;;;5104187;28;20219;-90
2021/01/21 12:35:23;;;;;;;7.15;1.65;;;;;;;;;;5104426;28;20199;-86
2021/01/21 12:37:49;;;;;;;6.97;1.83;;;;;;;;;;5103022;28;20179;-86
2021/01/21 12:40:15;;;;;;;6.50;2.42;;;;;;;;;;5090686;28;20184;-85
2021/01/21 12:42:41;;;;;;;8.85;4.63;;;;;;;;;;5090896;28;20283;-86
2021/01/21 12:45:08;;;;;;;7.32;2.90;;;;;;;;;;5090885;28;20222;-85
2021/01/21 12:47:34;;;;;;;6.03;2.22;;;;;;;;;;5089814;28;20650;-82
2021/01/21 12:50:00;;;;;;;5.30;2.27;;;;;;;;;;5104090;28;20184;-82
2021/01/21 12:52:26;;;;;;;7.18;2.40;;;;;;;;;;5093164;28;20544;-83
2021/01/21 12:54:54;;;;;;;6.28;2.28;;;;;;;;;;5086981;28;20236;-81
2021/01/21 12:57:20;;;;;;;9.85;2.00;;;;;;;;;;5088403;28;20643;-82
2021/01/21 12:59:47;;;;;;;5.97;1.73;;;;;;;;;;5096950;28;20267;-82
2021/01/21 13:02:13;;;;;;;3.95;1.70;;;;;;;;;;5092723;28;20553;-82
2021/01/21 13:04:39;;;;;;;7.57;2.00;;;;;;;;;;5091793;28;20764;-82
2021/01/21 13:07:06;;;;;;;8.18;1.70;;;;;;;;;;5098089;28;20179;-83
2021/01/21 13:09:32;;;;;;;10.85;2.90;;;;;;;;;;5093142;28;20168;-82
2021/01/21 13:11:58;;;;;;;11.40;3.33;;;;;;;;;;5097391;28;20210;-84
2021/01/21 13:14:24;;;;;;;4.43;1.65;;;;;;;;;;5099879;28;20176;-84
2021/01/21 13:16:50;;;;;;;6.82;1.90;;;;;;;;;;5088734;28;20233;-83
2021/01/21 13:19:16;;;;;;;10.90;1.85;;;;;;;;;;5097175;28;20188;-81
2021/01/21 13:21:43;;;;;;;8.20;2.95;;;;;;;;;;5101577;28;20203;-82
2021/01/21 13:24:09;;;;;;;13.73;3.17;;;;;;;;;;5092219;28;20206;-83
2021/01/21 13:26:35;;;;;;;8.85;2.25;;;;;;;;;;5101333;28;20650;-83
2021/01/21 13:29:01;;;;;;;5.38;2.35;;;;;;;;;;5094451;28;20191;-83
2021/01/21 13:31:27;;;;;;;6.13;2.53;;;;;;;;;;5096266;28;20702;-83
2021/01/21 13:33:53;;;;;;;6.57;1.90;;;;;;;;;;5104174;28;20208;-82
2021/01/21 13:36:19;;;;;;;3.07;1.90;;;;;;;;;;5101927;28;20199;-86
2021/01/21 13:38:46;;;;;;;9.93;1.70;;;;;;;;;;5102092;28;20485;-83
2021/01/21 13:41:13;;;;;;;12.18;2.47;;;;;;;;;;5100132;28;20180;-82
2021/01/21 13:43:39;;;;;;;6.60;2.25;;;;;;;;;;5097365;28;20198;-81
2021/01/21 13:46:05;;;;;;;6.93;1.83;;;;;;;;;;5096041;28;20540;-82
2021/01/21 13:48:31;;;;;;;6.30;2.00;;;;;;;;;;5093922;28;20215;-85
2021/01/21 13:50:57;;;;;;;2.88;1.60;;;;;;;;;;5096461;28;20176;-83
2021/01/21 13:53:24;;;;;;;12.00;3.22;;;;;;;;;;5097239;28;20195;-86
2021/01/21 13:55:50;;;;;;;7.47;1.75;;;;;;;;;;5091615;28;20181;-88
2021/01/21 13:58:16;;;;;;;17.17;2.55;;;;;;;;;;5092559;28;20668;-87
2021/01/21 14:00:42;;;;;;;3.55;2.25;;;;;;;;;;5098191;28;20656;-85
2021/01/21 14:03:08;;;;;;;10.00;2.60;;;;;;;;;;5093763;28;20240;-87
2021/01/21 14:05:34;;;;;;;7.07;2.10;;;;;;;;;;5101335;28;21500;-87
2021/01/21 14:08:00;;;;;;;5.40;2.17;;;;;;;;;;5104140;28;20184;-85
2021/01/21 14:10:26;;;;;;;6.70;1.60;;;;;;;;;;5092538;28;20194;-87
2021/01/21 14:12:52;;;;;;;7.47;1.70;;;;;;;;;;5096209;28;20248;-86
2021/01/21 14:15:18;;;;;;;10.18;2.05;;;;;;;;;;5098100;28;20517;-85
2021/01/21 14:17:44;;;;;;;8.20;1.85;;;;;;;;;;5101173;28;20168;-88
2021/01/21 14:20:11;;;;;;;5.13;1.88;;;;;;;;;;5097752;28;20195;-86
2021/01/21 14:22:37;;;;;;;4.90;1.65;;;;;;;;;;5099721;28;20196;-85
2021/01/21 14:25:04;;;;;;;4.60;1.88;;;;;;;;;;5101858;28;20176;-85
2021/01/21 14:27:30;;;;;;;8.35;2.20;;;;;;;;;;5100889;28;20662;-85
2021/01/21 14:29:56;;;;;;;10.73;1.90;;;;;;;;;;5107264;28;20186;-85
2021/01/21 14:32:22;;;;;;;5.43;1.43;;;;;;;;;;5101262;28;20215;-85
2021/01/21 14:34:48;;;;;;;5.38;1.50;;;;;;;;;;5101617;28;20445;-87
2021/01/21 14:37:14;;;;;;;4.75;1.85;;;;;;;;;;5093524;28;20677;-86
2021/01/21 14:39:40;;;;;;;8.40;2.23;;;;;;;;;;5089166;28;20180;-87
2021/01/21 14:42:06;;;;;;;2.90;1.60;;;;;;;;;;5090013;28;20431;-88